Time;durP1;ratioP1;P1;durP2;ratioP2;P2;SDS_P1;SDS_P2;PMS_P1;PMS_P2;Temp;Humidity;BMP_temperature;BMP_pressure;BME280_temperature;BME280_humidity;BME280_pressure;Samples;Min_cycle;Max_cycle;Signal;HPM_P1;HPM_P2
2023/08/23 00:01:08;;;;;;;1.67;0.70;;;;;;;;;;5105356;27;43139;-73
2023/08/23 00:03:53;;;;;;;1.52;0.70;;;;;;;;;;5105379;27;40285;-73
2023/08/23 00:06:21;;;;;;;2.38;0.88;;;;;;;;;;5104612;27;41981;-74
2023/08/23 00:08:50;;;;;;;2.75;1.08;;;;;;;;;;5091569;28;43102;-73
2023/08/23 00:11:18;;;;;;;1.70;0.80;;;;;;;;;;5105214;27;40245;-73
2023/08/23 00:13:46;;;;;;;1.42;0.88;;;;;;;;;;5101054;27;42647;-73
2023/08/23 00:16:14;;;;;;;3.05;0.93;;;;;;;;;;5101162;28;40100;-74
2023/08/23 00:18:42;;;;;;;3.35;0.70;;;;;;;;;;5105223;27;42679;-74
2023/08/23 00:21:10;;;;;;;1.70;1.00;;;;;;;;;;5104347;27;41687;-74
2023/08/23 00:23:38;;;;;;;1.58;0.80;;;;;;;;;;5104130;27;40380;-74
2023/08/23 00:26:07;;;;;;;0.77;0.60;;;;;;;;;;5105798;27;42163;-73
2023/08/23 00:28:35;;;;;;;1.25;0.60;;;;;;;;;;5104052;27;41953;-74
2023/08/23 00:31:03;;;;;;;0.90;0.60;;;;;;;;;;5104721;28;39793;-74
2023/08/23 00:33:32;;;;;;;0.73;0.50;;;;;;;;;;5103749;28;41377;-74
2023/08/23 00:36:00;;;;;;;0.60;0.50;;;;;;;;;;5105637;28;42878;-74
2023/08/23 00:38:28;;;;;;;1.50;0.90;;;;;;;;;;5090650;28;41870;-74
2023/08/23 00:40:56;;;;;;;1.55;0.90;;;;;;;;;;5104680;28;41886;-73
2023/08/23 00:43:25;;;;;;;0.90;0.80;;;;;;;;;;5105016;28;41230;-73
2023/08/23 00:45:53;;;;;;;1.17;0.70;;;;;;;;;;5105545;28;41915;-73
2023/08/23 00:48:21;;;;;;;0.98;0.52;;;;;;;;;;5104141;27;42846;-73
2023/08/23 00:50:51;;;;;;;1.35;0.88;;;;;;;;;;5098426;27;39828;-74
2023/08/23 00:53:19;;;;;;;1.27;0.70;;;;;;;;;;5105466;27;42552;-74
2023/08/23 00:55:47;;;;;;;1.20;0.88;;;;;;;;;;5103173;27;42039;-74
2023/08/23 00:58:15;;;;;;;0.65;0.60;;;;;;;;;;5105357;28;42090;-74
2023/08/23 01:00:44;;;;;;;1.38;0.90;;;;;;;;;;5090508;28;40887;-73
2023/08/23 01:03:12;;;;;;;1.00;0.75;;;;;;;;;;5102934;28;39362;-73
2023/08/23 01:05:43;;;;;;;0.75;0.50;;;;;;;;;;5101541;28;41723;-74
2023/08/23 01:08:13;;;;;;;1.65;0.65;;;;;;;;;;5108779;28;41627;-74
2023/08/23 01:10:42;;;;;;;0.68;0.68;;;;;;;;;;5105221;28;40506;-73
2023/08/23 01:13:13;;;;;;;1.38;0.52;;;;;;;;;;5096659;28;40480;-74
2023/08/23 01:15:41;;;;;;;0.50;0.50;;;;;;;;;;5104508;28;43648;-74
2023/08/23 01:18:11;;;;;;;0.93;0.60;;;;;;;;;;5111777;28;39063;-74
2023/08/23 01:20:39;;;;;;;0.50;0.50;;;;;;;;;;5112213;28;42133;-73
2023/08/23 01:23:12;;;;;;;0.95;0.70;;;;;;;;;;5110117;27;41896;-73
2023/08/23 01:25:43;;;;;;;1.00;0.50;;;;;;;;;;5109675;28;41222;-74
2023/08/23 01:28:11;;;;;;;2.05;0.82;;;;;;;;;;5097205;27;40711;-73
2023/08/23 01:30:39;;;;;;;0.90;0.75;;;;;;;;;;5105949;28;40524;-73
2023/08/23 01:33:09;;;;;;;2.53;0.52;;;;;;;;;;5108085;27;41374;-73
2023/08/23 01:35:40;;;;;;;2.25;0.70;;;;;;;;;;5113790;27;39683;-73
2023/08/23 01:38:08;;;;;;;3.28;1.00;;;;;;;;;;5106067;27;40449;-73
2023/08/23 01:40:39;;;;;;;2.70;0.90;;;;;;;;;;5107766;28;41746;-73
2023/08/23 01:43:07;;;;;;;1.23;0.52;;;;;;;;;;5107184;27;39052;-74
2023/08/23 01:45:35;;;;;;;1.02;0.50;;;;;;;;;;5105471;28;41321;-73
2023/08/23 01:48:03;;;;;;;2.25;0.88;;;;;;;;;;5106386;28;40485;-73
2023/08/23 01:50:31;;;;;;;0.57;0.57;;;;;;;;;;5107145;28;40756;-73
2023/08/23 01:52:59;;;;;;;1.67;0.77;;;;;;;;;;5105951;28;40945;-74
2023/08/23 01:55:28;;;;;;;2.15;1.02;;;;;;;;;;5118339;27;40722;-74
2023/08/23 01:57:57;;;;;;;1.33;0.90;;;;;;;;;;5106399;27;39899;-73
2023/08/23 02:00:25;;;;;;;1.30;0.70;;;;;;;;;;5113752;27;41209;-74
2023/08/23 02:02:53;;;;;;;1.08;0.95;;;;;;;;;;5112633;27;42154;-73
2023/08/23 02:05:22;;;;;;;1.38;0.98;;;;;;;;;;5104901;28;42700;-74
2023/08/23 02:07:50;;;;;;;1.17;1.08;;;;;;;;;;5104953;28;42069;-74
2023/08/23 02:10:21;;;;;;;1.20;0.90;;;;;;;;;;5105282;28;39695;-73
2023/08/23 02:12:49;;;;;;;0.40;0.40;;;;;;;;;;5104904;28;41452;-73
2023/08/23 02:15:18;;;;;;;1.50;0.80;;;;;;;;;;5091018;27;40968;-74
2023/08/23 02:17:46;;;;;;;1.05;0.93;;;;;;;;;;5109893;27;40239;-74
2023/08/23 02:20:14;;;;;;;1.10;1.00;;;;;;;;;;5110253;27;41175;-74
2023/08/23 02:22:42;;;;;;;0.80;0.80;;;;;;;;;;5113189;27;41815;-73
2023/08/23 02:25:10;;;;;;;1.92;0.95;;;;;;;;;;5108154;27;41394;-74
2023/08/23 02:27:38;;;;;;;1.48;0.82;;;;;;;;;;5105452;27;42166;-73
2023/08/23 02:30:09;;;;;;;0.82;0.82;;;;;;;;;;5107108;28;40010;-73
2023/08/23 02:32:38;;;;;;;3.45;0.95;;;;;;;;;;5106677;27;41264;-73
2023/08/23 02:35:07;;;;;;;0.77;0.70;;;;;;;;;;5104300;28;40715;-73
2023/08/23 02:37:35;;;;;;;0.50;0.47;;;;;;;;;;5106257;28;41957;-74
2023/08/23 02:40:04;;;;;;;0.57;0.57;;;;;;;;;;5106413;28;43164;-73
2023/08/23 02:42:32;;;;;;;0.90;0.73;;;;;;;;;;5104742;28;40718;-73
2023/08/23 02:45:00;;;;;;;0.60;0.50;;;;;;;;;;5105533;28;40210;-74
2023/08/23 02:47:28;;;;;;;1.52;0.80;;;;;;;;;;5105911;28;41582;-73
2023/08/23 02:49:57;;;;;;;1.02;0.73;;;;;;;;;;5105341;28;39917;-74
2023/08/23 02:52:25;;;;;;;1.30;0.82;;;;;;;;;;5106060;28;41763;-73
2023/08/23 02:54:53;;;;;;;1.55;1.13;;;;;;;;;;5105383;28;41844;-73
2023/08/23 02:57:21;;;;;;;0.90;0.90;;;;;;;;;;5103919;28;39301;-74
2023/08/23 02:59:49;;;;;;;0.60;0.60;;;;;;;;;;5105859;28;41351;-73
2023/08/23 03:02:17;;;;;;;1.55;1.13;;;;;;;;;;5105518;28;42061;-73
2023/08/23 03:04:46;;;;;;;2.00;1.27;;;;;;;;;;5106805;27;40791;-74
2023/08/23 03:07:15;;;;;;;1.23;0.80;;;;;;;;;;5107278;28;41372;-73
2023/08/23 03:09:44;;;;;;;1.23;1.05;;;;;;;;;;5105985;28;41283;-73
2023/08/23 03:12:12;;;;;;;1.23;1.13;;;;;;;;;;5107080;28;41367;-73
2023/08/23 03:14:39;;;;;;;1.45;1.10;;;;;;;;;;5104388;28;43004;-73
2023/08/23 03:17:07;;;;;;;1.30;0.95;;;;;;;;;;5105636;28;41344;-73
2023/08/23 03:19:36;;;;;;;2.28;1.38;;;;;;;;;;5102160;28;40446;-73
2023/08/23 03:22:04;;;;;;;2.05;1.10;;;;;;;;;;5108966;27;40677;-73
2023/08/23 03:24:35;;;;;;;0.63;0.63;;;;;;;;;;5108262;27;38892;-73
2023/08/23 03:27:03;;;;;;;0.80;0.80;;;;;;;;;;5107258;27;41082;-73
2023/08/23 03:29:31;;;;;;;1.05;0.95;;;;;;;;;;5113496;27;41868;-73
2023/08/23 03:32:00;;;;;;;0.70;0.70;;;;;;;;;;5108929;27;40458;-73
2023/08/23 03:34:28;;;;;;;2.38;1.35;;;;;;;;;;5103569;28;41971;-73
2023/08/23 03:36:56;;;;;;;2.92;0.90;;;;;;;;;;5105245;28;40683;-73
2023/08/23 03:39:25;;;;;;;2.05;1.25;;;;;;;;;;5105927;27;42323;-73
2023/08/23 03:41:54;;;;;;;0.95;0.88;;;;;;;;;;5106065;28;41865;-73
2023/08/23 03:44:22;;;;;;;1.10;0.60;;;;;;;;;;5103710;28;39090;-73
2023/08/23 03:46:50;;;;;;;1.13;0.80;;;;;;;;;;5104090;28;40112;-73
2023/08/23 03:49:19;;;;;;;1.98;0.93;;;;;;;;;;5104061;28;40942;-73
2023/08/23 03:51:47;;;;;;;0.93;0.90;;;;;;;;;;5098641;28;40794;-73
2023/08/23 03:54:16;;;;;;;1.10;1.00;;;;;;;;;;5105641;28;42754;-73
2023/08/23 03:56:44;;;;;;;1.65;1.15;;;;;;;;;;5105491;27;40563;-74
2023/08/23 03:59:13;;;;;;;2.83;0.80;;;;;;;;;;5105386;28;41679;-73
2023/08/23 04:01:43;;;;;;;2.45;1.80;;;;;;;;;;5104929;28;42904;-73
2023/08/23 04:04:14;;;;;;;0.77;0.77;;;;;;;;;;5110507;27;39915;-73
2023/08/23 04:06:42;;;;;;;0.80;0.50;;;;;;;;;;5102083;28;40364;-73
2023/08/23 04:09:11;;;;;;;1.80;1.42;;;;;;;;;;5105636;28;42007;-74
2023/08/23 04:11:39;;;;;;;2.65;1.40;;;;;;;;;;5104059;28;40435;-74
2023/08/23 04:14:07;;;;;;;2.25;1.95;;;;;;;;;;5105873;28;41478;-73
2023/08/23 04:16:37;;;;;;;1.33;1.23;;;;;;;;;;5103371;28;40038;-73
2023/08/23 04:19:05;;;;;;;1.27;1.17;;;;;;;;;;5106008;27;40374;-73
2023/08/23 04:21:33;;;;;;;1.80;1.30;;;;;;;;;;5121068;27;43014;-73
2023/08/23 04:24:01;;;;;;;2.15;1.75;;;;;;;;;;5103227;27;40574;-73
2023/08/23 04:26:29;;;;;;;1.65;1.20;;;;;;;;;;5105281;27;40060;-73
2023/08/23 04:28:57;;;;;;;1.55;1.20;;;;;;;;;;5104306;27;42224;-74
2023/08/23 04:31:25;;;;;;;2.47;1.33;;;;;;;;;;5112246;27;39230;-73
2023/08/23 04:34:04;;;;;;;1.60;1.45;;;;;;;;;;5100238;28;39917;-74
2023/08/23 04:36:33;;;;;;;1.95;1.70;;;;;;;;;;5109969;27;41028;-73
2023/08/23 04:39:02;;;;;;;1.23;1.13;;;;;;;;;;5114280;27;42625;-73
2023/08/23 04:41:30;;;;;;;1.52;1.33;;;;;;;;;;5105905;27;40672;-73
2023/08/23 04:43:58;;;;;;;1.55;1.40;;;;;;;;;;5107759;27;39491;-73
2023/08/23 04:46:26;;;;;;;1.00;0.90;;;;;;;;;;5106974;28;40239;-74
2023/08/23 04:48:54;;;;;;;1.10;1.00;;;;;;;;;;5106642;28;40710;-74
2023/08/23 04:51:23;;;;;;;4.57;0.70;;;;;;;;;;5106943;27;40152;-74
2023/08/23 04:53:52;;;;;;;0.95;0.73;;;;;;;;;;5106634;28;40158;-73
2023/08/23 04:56:20;;;;;;;1.38;1.10;;;;;;;;;;5106905;27;41906;-74
2023/08/23 04:58:48;;;;;;;2.47;1.65;;;;;;;;;;5102484;28;40300;-73
2023/08/23 05:01:16;;;;;;;0.82;0.75;;;;;;;;;;5114491;27;41555;-73
2023/08/23 05:03:46;;;;;;;1.67;1.58;;;;;;;;;;5106257;27;40846;-73
2023/08/23 05:06:14;;;;;;;2.00;1.55;;;;;;;;;;5107125;28;41909;-73
2023/08/23 05:08:44;;;;;;;1.20;1.05;;;;;;;;;;5105538;28;41129;-73
2023/08/23 05:11:18;;;;;;;1.73;1.10;;;;;;;;;;5106593;28;41527;-73
2023/08/23 05:13:46;;;;;;;1.73;1.10;;;;;;;;;;5108070;28;41820;-73
2023/08/23 05:16:15;;;;;;;1.70;1.42;;;;;;;;;;5107147;27;40687;-73
2023/08/23 05:18:45;;;;;;;1.88;1.00;;;;;;;;;;5105085;27;39013;-73
2023/08/23 05:21:13;;;;;;;1.40;1.30;;;;;;;;;;5107738;28;42862;-73
2023/08/23 05:23:41;;;;;;;3.13;1.25;;;;;;;;;;5106538;28;42355;-73
2023/08/23 05:26:10;;;;;;;1.55;1.30;;;;;;;;;;5107165;28;40112;-73
2023/08/23 05:28:38;;;;;;;1.20;1.10;;;;;;;;;;5105649;27;41658;-73
2023/08/23 05:31:06;;;;;;;1.95;1.08;;;;;;;;;;5106515;27;41270;-73
2023/08/23 05:33:35;;;;;;;2.00;1.30;;;;;;;;;;5105558;28;40259;-74
2023/08/23 05:36:04;;;;;;;1.58;1.33;;;;;;;;;;5105837;28;40326;-74
2023/08/23 05:38:32;;;;;;;1.30;0.80;;;;;;;;;;5107681;28;40373;-74
2023/08/23 05:41:02;;;;;;;1.02;0.80;;;;;;;;;;5106644;28;40462;-74
2023/08/23 05:43:31;;;;;;;1.23;1.00;;;;;;;;;;5105169;27;40724;-74
2023/08/23 05:45:59;;;;;;;3.03;1.23;;;;;;;;;;5110664;27;42568;-74
2023/08/23 05:48:29;;;;;;;2.88;1.63;;;;;;;;;;5106812;27;40757;-74
2023/08/23 05:50:57;;;;;;;1.02;0.90;;;;;;;;;;5105430;27;39340;-74
2023/08/23 05:53:24;;;;;;;2.50;1.35;;;;;;;;;;5106941;27;42435;-74
2023/08/23 05:55:52;;;;;;;2.00;1.33;;;;;;;;;;5114669;27;42445;-74
2023/08/23 05:58:21;;;;;;;2.17;1.30;;;;;;;;;;5116086;27;39839;-74
2023/08/23 06:00:51;;;;;;;3.00;1.63;;;;;;;;;;5109125;27;41361;-74
2023/08/23 06:03:19;;;;;;;0.85;0.82;;;;;;;;;;5112600;27;42149;-74
2023/08/23 06:05:49;;;;;;;1.63;1.35;;;;;;;;;;5106240;27;41679;-74
2023/08/23 06:08:17;;;;;;;1.80;1.45;;;;;;;;;;5112481;27;43224;-74
2023/08/23 06:10:45;;;;;;;1.75;1.60;;;;;;;;;;5104748;27;41373;-74
2023/08/23 06:13:15;;;;;;;2.53;1.33;;;;;;;;;;5106838;27;42376;-74
2023/08/23 06:15:43;;;;;;;2.75;2.15;;;;;;;;;;5113401;27;42700;-74
2023/08/23 06:18:12;;;;;;;1.77;1.65;;;;;;;;;;5107082;27;40367;-74
2023/08/23 06:20:43;;;;;;;2.25;2.05;;;;;;;;;;5095563;28;43646;-75
2023/08/23 06:23:11;;;;;;;1.90;1.80;;;;;;;;;;5106812;27;42786;-75
2023/08/23 06:25:39;;;;;;;2.40;1.95;;;;;;;;;;5106175;27;40236;-75
2023/08/23 06:28:07;;;;;;;1.70;1.30;;;;;;;;;;5107102;27;42763;-75
2023/08/23 06:30:36;;;;;;;2.88;2.65;;;;;;;;;;5107695;27;40351;-75
2023/08/23 06:33:05;;;;;;;1.90;1.38;;;;;;;;;;5108484;27;42360;-75
2023/08/23 06:35:35;;;;;;;2.63;2.08;;;;;;;;;;5108306;27;42188;-75
2023/08/23 06:38:02;;;;;;;1.30;1.02;;;;;;;;;;5113440;27;40067;-72
2023/08/23 06:40:30;;;;;;;2.20;1.63;;;;;;;;;;5108755;27;42592;-72
2023/08/23 06:42:58;;;;;;;4.18;1.85;;;;;;;;;;5108241;27;42083;-71
2023/08/23 06:45:29;;;;;;;2.92;2.05;;;;;;;;;;5111114;27;41144;-71
2023/08/23 06:47:57;;;;;;;3.17;2.58;;;;;;;;;;5108772;27;42071;-72
2023/08/23 06:50:25;;;;;;;5.88;2.70;;;;;;;;;;5105590;27;39842;-72
2023/08/23 06:52:55;;;;;;;6.45;1.95;;;;;;;;;;5107692;27;41814;-72
2023/08/23 06:55:25;;;;;;;5.15;2.60;;;;;;;;;;5107065;27;42740;-71
2023/08/23 06:57:53;;;;;;;5.75;2.72;;;;;;;;;;5106805;28;40188;-72
2023/08/23 07:00:23;;;;;;;5.43;3.03;;;;;;;;;;5094248;27;42900;-72
2023/08/23 07:02:51;;;;;;;4.50;2.67;;;;;;;;;;5107834;27;43487;-72
2023/08/23 07:05:19;;;;;;;5.72;2.70;;;;;;;;;;5108003;27;40473;-72
2023/08/23 07:07:47;;;;;;;3.40;2.92;;;;;;;;;;5107776;27;42010;-72
2023/08/23 07:10:17;;;;;;;4.28;2.65;;;;;;;;;;5108234;27;34237;-72
2023/08/23 07:12:55;;;;;;;5.45;3.47;;;;;;;;;;5107841;27;41287;-72
2023/08/23 07:15:23;;;;;;;3.30;2.85;;;;;;;;;;5107058;27;41599;-72
2023/08/23 07:17:51;;;;;;;7.22;3.58;;;;;;;;;;5109229;27;41006;-71
2023/08/23 07:20:19;;;;;;;5.57;2.85;;;;;;;;;;5107766;27;42263;-71
2023/08/23 07:22:47;;;;;;;3.95;2.38;;;;;;;;;;5111604;27;41499;-71
2023/08/23 07:25:16;;;;;;;8.55;5.28;;;;;;;;;;5112344;27;40626;-71
2023/08/23 07:27:45;;;;;;;8.60;6.82;;;;;;;;;;5114146;27;41674;-72
2023/08/23 07:30:14;;;;;;;12.25;7.63;;;;;;;;;;5107725;27;41481;-69
2023/08/23 07:32:42;;;;;;;7.70;6.25;;;;;;;;;;5107815;27;41806;-66
2023/08/23 07:35:10;;;;;;;7.75;6.68;;;;;;;;;;5108223;27;42271;-70
2023/08/23 07:37:39;;;;;;;7.82;6.70;;;;;;;;;;5107448;27;41026;-70
2023/08/23 07:40:09;;;;;;;9.52;6.13;;;;;;;;;;5108342;27;42041;-72
2023/08/23 07:42:37;;;;;;;7.78;6.53;;;;;;;;;;5111118;27;41615;-71
2023/08/23 07:45:07;;;;;;;7.75;6.28;;;;;;;;;;5109063;27;41018;-68
2023/08/23 07:47:35;;;;;;;11.23;6.55;;;;;;;;;;5112607;27;41734;-67
2023/08/23 07:50:04;;;;;;;8.30;5.90;;;;;;;;;;5106034;27;41562;-67
2023/08/23 07:52:32;;;;;;;11.32;6.38;;;;;;;;;;5108050;27;40086;-69
2023/08/23 07:55:00;;;;;;;9.35;6.47;;;;;;;;;;5108859;27;42570;-74
2023/08/23 07:57:30;;;;;;;7.78;6.35;;;;;;;;;;5112886;27;40078;-77
2023/08/23 08:00:02;;;;;;;10.25;6.28;;;;;;;;;;5116671;27;42830;-78
2023/08/23 08:02:34;;;;;;;9.98;6.05;;;;;;;;;;5113395;27;42503;-78
2023/08/23 08:05:02;;;;;;;7.55;6.40;;;;;;;;;;5114056;27;40414;-74
2023/08/23 08:07:30;;;;;;;12.32;6.30;;;;;;;;;;5119656;27;41043;-74
2023/08/23 08:10:18;;;;;;;9.25;6.40;;;;;;;;;;5113602;27;43066;-74
2023/08/23 08:12:46;;;;;;;17.00;6.47;;;;;;;;;;5113911;27;41381;-75
2023/08/23 08:15:14;;;;;;;45.28;7.45;;;;;;;;;;5108787;27;41865;-78
2023/08/23 08:17:44;;;;;;;34.60;6.60;;;;;;;;;;5108672;27;40529;-70
2023/08/23 08:20:13;;;;;;;23.48;7.10;;;;;;;;;;5108909;27;42648;-72
2023/08/23 08:22:41;;;;;;;21.98;7.82;;;;;;;;;;5105575;27;42037;-72
2023/08/23 08:25:09;;;;;;;115.65;10.85;;;;;;;;;;5106209;27;41329;-68
2023/08/23 08:27:41;;;;;;;32.67;5.85;;;;;;;;;;5110769;27;43091;-68
2023/08/23 08:30:09;;;;;;;36.17;5.70;;;;;;;;;;5106749;27;41631;-71
2023/08/23 08:32:37;;;;;;;59.65;6.25;;;;;;;;;;5105383;27;40678;-69
2023/08/23 08:35:07;;;;;;;114.22;9.23;;;;;;;;;;5107073;27;41814;-77
2023/08/23 08:37:35;;;;;;;57.63;6.93;;;;;;;;;;5106339;27;43118;-71
2023/08/23 08:40:03;;;;;;;65.57;6.30;;;;;;;;;;5105632;27;41858;-71
2023/08/23 08:42:31;;;;;;;60.85;6.57;;;;;;;;;;5106046;27;41594;-70
2023/08/23 08:44:59;;;;;;;38.13;4.95;;;;;;;;;;5106737;27;40424;-68
2023/08/23 08:47:27;;;;;;;39.70;4.78;;;;;;;;;;5105132;27;42266;-68
2023/08/23 08:49:56;;;;;;;38.65;5.03;;;;;;;;;;5106603;27;41643;-73
2023/08/23 08:52:25;;;;;;;47.35;5.45;;;;;;;;;;5106223;27;41050;-73
2023/08/23 08:54:54;;;;;;;40.80;6.05;;;;;;;;;;5115672;27;41613;-72
2023/08/23 08:57:22;;;;;;;48.03;6.63;;;;;;;;;;5106567;27;42792;-72
2023/08/23 08:59:50;;;;;;;37.22;5.78;;;;;;;;;;5105819;27;40486;-79
2023/08/23 09:02:19;;;;;;;30.10;5.47;;;;;;;;;;5106346;27;42318;-74
2023/08/23 09:04:47;;;;;;;27.23;6.32;;;;;;;;;;5106084;27;41622;-71
2023/08/23 09:07:15;;;;;;;25.27;5.75;;;;;;;;;;5105609;27;42577;-71
2023/08/23 09:09:45;;;;;;;32.97;5.72;;;;;;;;;;5105730;27;43153;-72
2023/08/23 09:12:13;;;;;;;38.47;5.45;;;;;;;;;;5105720;27;41397;-72
2023/08/23 09:14:41;;;;;;;31.17;5.32;;;;;;;;;;5105777;27;41447;-72
2023/08/23 09:17:08;;;;;;;16.90;4.40;;;;;;;;;;5106995;27;41976;-67
2023/08/23 09:19:37;;;;;;;35.88;5.32;;;;;;;;;;5114242;27;40803;-72
2023/08/23 09:22:06;;;;;;;20.33;4.28;;;;;;;;;;5106497;27;42728;-73
2023/08/23 09:24:34;;;;;;;27.35;4.70;;;;;;;;;;5109411;27;40532;-72
2023/08/23 09:27:03;;;;;;;20.38;4.75;;;;;;;;;;5119053;27;41585;-72
2023/08/23 09:29:32;;;;;;;23.55;4.53;;;;;;;;;;5108201;27;42903;-72
2023/08/23 09:32:00;;;;;;;24.70;4.13;;;;;;;;;;5116063;27;41359;-68
2023/08/23 09:34:28;;;;;;;18.75;4.45;;;;;;;;;;5108897;27;41492;-72
2023/08/23 09:37:05;;;;;;;20.90;4.60;;;;;;;;;;5107645;27;42809;-72
2023/08/23 09:39:33;;;;;;;19.30;4.18;;;;;;;;;;5109991;27;41236;-72
2023/08/23 09:42:04;;;;;;;24.52;5.05;;;;;;;;;;5114636;27;41542;-72
2023/08/23 09:44:34;;;;;;;13.48;4.05;;;;;;;;;;5117562;27;39954;-72
2023/08/23 09:47:02;;;;;;;15.32;4.15;;;;;;;;;;5098722;28;40910;-72
2023/08/23 09:49:32;;;;;;;14.40;4.10;;;;;;;;;;5107962;27;42547;-72
2023/08/23 09:52:00;;;;;;;24.20;3.58;;;;;;;;;;5108325;27;39672;-72
2023/08/23 09:54:30;;;;;;;14.70;3.95;;;;;;;;;;5108489;27;39944;-72
2023/08/23 09:57:14;;;;;;;17.60;3.72;;;;;;;;;;5110768;27;42268;-72
2023/08/23 09:59:44;;;;;;;14.50;4.05;;;;;;;;;;5114035;27;40625;-72
2023/08/23 10:02:12;;;;;;;13.80;3.50;;;;;;;;;;5110087;27;42905;-69
2023/08/23 10:04:40;;;;;;;8.13;3.47;;;;;;;;;;5104436;27;42120;-69
2023/08/23 10:07:08;;;;;;;17.95;4.50;;;;;;;;;;5105598;27;42991;-69
2023/08/23 10:09:36;;;;;;;11.40;4.13;;;;;;;;;;5104270;27;41468;-69
2023/08/23 10:12:04;;;;;;;10.85;3.83;;;;;;;;;;5111012;27;38514;-69
2023/08/23 10:14:32;;;;;;;11.38;3.78;;;;;;;;;;5106549;27;41376;-69
2023/08/23 10:17:02;;;;;;;7.85;3.60;;;;;;;;;;5106214;27;41766;-67
2023/08/23 10:19:30;;;;;;;5.40;3.20;;;;;;;;;;5105524;27;40059;-67
2023/08/23 10:21:58;;;;;;;10.90;3.42;;;;;;;;;;5106534;27;42425;-67
2023/08/23 10:24:28;;;;;;;4.82;3.45;;;;;;;;;;5105762;27;43068;-69
2023/08/23 10:26:56;;;;;;;7.78;3.08;;;;;;;;;;5107000;27;39938;-69
2023/08/23 10:29:26;;;;;;;6.88;2.95;;;;;;;;;;5106235;27;42210;-69
2023/08/23 10:31:54;;;;;;;6.05;3.15;;;;;;;;;;5105190;27;41007;-69
2023/08/23 10:34:26;;;;;;;6.93;3.45;;;;;;;;;;5106051;27;41724;-69
2023/08/23 10:36:55;;;;;;;8.65;2.70;;;;;;;;;;5105801;27;41812;-69
2023/08/23 10:39:24;;;;;;;8.07;3.05;;;;;;;;;;5104623;27;40033;-69
2023/08/23 10:41:52;;;;;;;5.55;2.63;;;;;;;;;;5106248;27;41669;-69
2023/08/23 10:44:20;;;;;;;5.97;2.25;;;;;;;;;;5107817;27;42172;-69
2023/08/23 10:46:50;;;;;;;11.43;2.25;;;;;;;;;;5107123;27;41387;-69
2023/08/23 10:49:20;;;;;;;9.98;2.42;;;;;;;;;;5108146;27;41540;-69
2023/08/23 10:51:49;;;;;;;8.95;2.25;;;;;;;;;;5101348;28;41126;-68
2023/08/23 10:54:17;;;;;;;13.50;2.38;;;;;;;;;;5107358;27;42140;-69
2023/08/23 10:56:45;;;;;;;11.60;2.42;;;;;;;;;;5107555;27;41911;-69
2023/08/23 10:59:13;;;;;;;4.68;2.78;;;;;;;;;;5108824;27;40392;-69
2023/08/23 11:01:41;;;;;;;3.15;2.33;;;;;;;;;;5107260;27;41073;-69
2023/08/23 11:04:09;;;;;;;10.32;2.60;;;;;;;;;;5108426;27;42917;-70
2023/08/23 11:06:37;;;;;;;6.60;2.28;;;;;;;;;;5106687;27;41303;-69
2023/08/23 11:09:07;;;;;;;6.97;1.70;;;;;;;;;;5108482;27;41463;-69
2023/08/23 11:11:35;;;;;;;4.63;1.95;;;;;;;;;;5107849;27;41981;-69
2023/08/23 11:14:04;;;;;;;6.35;2.28;;;;;;;;;;5106974;27;41739;-69
2023/08/23 11:16:32;;;;;;;5.93;1.67;;;;;;;;;;5107489;27;42963;-69
2023/08/23 11:19:01;;;;;;;28.30;4.40;;;;;;;;;;5107391;27;42110;-69
2023/08/23 11:21:29;;;;;;;30.13;4.10;;;;;;;;;;5106152;27;40221;-68
2023/08/23 11:23:57;;;;;;;26.63;2.85;;;;;;;;;;5106592;27;41968;-68
2023/08/23 11:26:26;;;;;;;18.50;2.55;;;;;;;;;;5099117;28;40208;-68
2023/08/23 11:28:54;;;;;;;14.23;2.30;;;;;;;;;;5106686;27;42170;-73
2023/08/23 11:31:22;;;;;;;10.07;2.00;;;;;;;;;;5107983;27;41848;-73
2023/08/23 11:33:50;;;;;;;7.85;1.85;;;;;;;;;;5107299;27;41374;-72
2023/08/23 11:36:18;;;;;;;6.95;2.08;;;;;;;;;;5105188;27;41472;-72
2023/08/23 11:38:47;;;;;;;4.68;1.98;;;;;;;;;;5108165;27;40176;-72
2023/08/23 11:41:15;;;;;;;8.88;2.15;;;;;;;;;;5106996;27;41036;-72
2023/08/23 11:43:45;;;;;;;4.97;1.95;;;;;;;;;;5101684;27;41923;-69
2023/08/23 11:46:13;;;;;;;3.17;1.98;;;;;;;;;;5107119;27;40112;-69
2023/08/23 11:48:41;;;;;;;4.57;2.00;;;;;;;;;;5105670;27;41950;-69
2023/08/23 11:51:09;;;;;;;6.07;2.00;;;;;;;;;;5106890;27;43083;-67
2023/08/23 11:53:37;;;;;;;7.38;2.25;;;;;;;;;;5107691;27;39950;-71
2023/08/23 11:56:06;;;;;;;3.88;2.13;;;;;;;;;;5106570;27;41613;-69
2023/08/23 11:58:34;;;;;;;6.65;2.00;;;;;;;;;;5105840;27;40428;-69
2023/08/23 12:01:03;;;;;;;5.75;2.47;;;;;;;;;;5107095;27;42638;-71
2023/08/23 12:03:32;;;;;;;4.80;2.00;;;;;;;;;;5105938;27;42176;-71
2023/08/23 12:06:00;;;;;;;3.17;2.30;;;;;;;;;;5106924;27;40295;-69
2023/08/23 12:08:28;;;;;;;3.50;1.83;;;;;;;;;;5107322;27;41513;-68
2023/08/23 12:10:56;;;;;;;3.40;2.17;;;;;;;;;;5106006;27;42076;-68
2023/08/23 12:13:24;;;;;;;6.13;2.60;;;;;;;;;;5107709;27;41515;-68
2023/08/23 12:15:52;;;;;;;3.38;1.70;;;;;;;;;;5106576;27;41374;-71
2023/08/23 12:18:22;;;;;;;2.75;1.85;;;;;;;;;;5105833;27;39946;-71
2023/08/23 12:20:50;;;;;;;3.75;2.00;;;;;;;;;;5105600;27;41226;-71
2023/08/23 12:23:18;;;;;;;2.85;1.90;;;;;;;;;;5106268;27;41585;-71
2023/08/23 12:25:46;;;;;;;3.58;2.30;;;;;;;;;;5105487;27;40198;-71
2023/08/23 12:28:14;;;;;;;3.70;1.95;;;;;;;;;;5106262;27;41532;-72
2023/08/23 12:30:42;;;;;;;4.07;2.30;;;;;;;;;;5105559;27;43123;-76
2023/08/23 12:33:10;;;;;;;2.72;1.90;;;;;;;;;;5097469;28;40911;-83
2023/08/23 12:35:40;;;;;;;2.00;1.80;;;;;;;;;;5107604;27;41713;-68
2023/08/23 12:38:09;;;;;;;5.05;1.80;;;;;;;;;;5106834;27;43076;-68
2023/08/23 12:40:38;;;;;;;3.92;1.92;;;;;;;;;;5106044;27;41628;-68
2023/08/23 12:43:06;;;;;;;3.22;1.70;;;;;;;;;;5106545;27;42082;-68
2023/08/23 12:45:37;;;;;;;2.58;1.70;;;;;;;;;;5105701;27;40396;-68
2023/08/23 12:48:05;;;;;;;3.92;1.70;;;;;;;;;;5106047;27;42731;-68
2023/08/23 12:50:33;;;;;;;4.47;1.70;;;;;;;;;;5096735;28;42695;-68
2023/08/23 12:53:03;;;;;;;2.10;1.55;;;;;;;;;;5105762;27;40395;-68
2023/08/23 12:55:31;;;;;;;4.40;1.58;;;;;;;;;;5106150;27;42348;-68
2023/08/23 12:57:59;;;;;;;4.40;1.65;;;;;;;;;;5105871;27;43871;-68
2023/08/23 13:00:27;;;;;;;4.57;1.85;;;;;;;;;;5106009;27;40630;-68
2023/08/23 13:02:59;;;;;;;2.75;1.75;;;;;;;;;;5109858;27;42245;-68
2023/08/23 13:05:28;;;;;;;8.55;1.65;;;;;;;;;;5108602;27;41499;-68
2023/08/23 13:07:55;;;;;;;3.05;1.50;;;;;;;;;;5109341;27;42693;-69
2023/08/23 13:10:25;;;;;;;3.85;2.08;;;;;;;;;;5109371;27;42344;-76
2023/08/23 13:12:53;;;;;;;2.42;1.50;;;;;;;;;;5109787;27;39925;-68
2023/08/23 13:15:21;;;;;;;1.98;1.50;;;;;;;;;;5106515;27;41494;-69
2023/08/23 13:17:49;;;;;;;2.25;1.50;;;;;;;;;;5107380;27;42351;-69
2023/08/23 13:20:17;;;;;;;4.18;1.52;;;;;;;;;;5108779;27;40461;-72
2023/08/23 13:22:45;;;;;;;3.03;1.63;;;;;;;;;;5110289;27;40271;-72
2023/08/23 13:25:13;;;;;;;3.33;1.55;;;;;;;;;;5109529;27;41140;-72
2023/08/23 13:27:43;;;;;;;3.53;1.50;;;;;;;;;;5109262;27;42649;-71
2023/08/23 13:30:12;;;;;;;4.55;1.77;;;;;;;;;;5111601;27;20293;-72
2023/08/23 13:32:40;;;;;;;3.33;1.48;;;;;;;;;;5109712;27;40565;-71
2023/08/23 13:35:08;;;;;;;2.45;1.50;;;;;;;;;;5108337;27;41978;-69
2023/08/23 13:37:36;;;;;;;2.10;1.50;;;;;;;;;;5109764;27;42599;-70
2023/08/23 13:40:06;;;;;;;1.50;1.17;;;;;;;;;;5109758;27;40788;-69
2023/08/23 13:42:34;;;;;;;1.92;1.48;;;;;;;;;;5103632;28;41532;-69
2023/08/23 13:45:08;;;;;;;3.28;1.20;;;;;;;;;;5108910;27;41548;-70
2023/08/23 13:47:36;;;;;;;2.92;1.50;;;;;;;;;;5109956;27;42529;-70
2023/08/23 13:50:05;;;;;;;2.33;1.67;;;;;;;;;;5105344;27;43516;-69
2023/08/23 13:52:33;;;;;;;3.03;1.50;;;;;;;;;;5117703;27;40503;-73
2023/08/23 13:55:00;;;;;;;4.95;1.80;;;;;;;;;;5117349;27;41809;-68
2023/08/23 13:57:29;;;;;;;2.15;1.60;;;;;;;;;;5117612;27;41746;-69
2023/08/23 13:59:56;;;;;;;3.13;1.40;;;;;;;;;;5114516;27;40014;-69
2023/08/23 14:02:26;;;;;;;3.38;1.30;;;;;;;;;;5110999;27;41461;-68
2023/08/23 14:04:54;;;;;;;3.95;1.40;;;;;;;;;;5111386;27;42500;-72
2023/08/23 14:07:24;;;;;;;5.57;1.75;;;;;;;;;;5112679;27;42034;-74
2023/08/23 14:09:52;;;;;;;7.07;1.95;;;;;;;;;;5115864;27;42886;-73
2023/08/23 14:12:20;;;;;;;4.30;1.83;;;;;;;;;;5108566;27;41963;-79
2023/08/23 14:14:48;;;;;;;14.63;1.83;;;;;;;;;;5114979;27;41661;-74
2023/08/23 14:17:16;;;;;;;4.00;1.50;;;;;;;;;;5107204;28;43167;-73
2023/08/23 14:19:46;;;;;;;8.13;1.48;;;;;;;;;;5108349;27;40543;-74
2023/08/23 14:22:14;;;;;;;4.18;1.90;;;;;;;;;;5117211;27;41170;-73
2023/08/23 14:24:42;;;;;;;7.75;1.75;;;;;;;;;;5112947;27;42094;-74
2023/08/23 14:27:10;;;;;;;5.38;1.60;;;;;;;;;;5109727;27;41852;-74
2023/08/23 14:29:38;;;;;;;4.68;1.60;;;;;;;;;;5108903;27;42227;-74
2023/08/23 14:32:06;;;;;;;3.75;1.70;;;;;;;;;;5108383;27;40932;-74
2023/08/23 14:34:34;;;;;;;3.80;1.52;;;;;;;;;;5107434;27;41198;-74
2023/08/23 14:37:05;;;;;;;6.35;1.60;;;;;;;;;;5108240;27;42861;-72
2023/08/23 14:39:33;;;;;;;5.47;1.70;;;;;;;;;;5106720;27;39475;-73
2023/08/23 14:42:01;;;;;;;2.80;1.60;;;;;;;;;;5109583;27;41283;-72
2023/08/23 14:44:29;;;;;;;3.20;1.13;;;;;;;;;;5106625;27;43318;-72
2023/08/23 14:46:58;;;;;;;4.05;1.70;;;;;;;;;;5108602;27;40359;-72
2023/08/23 14:49:26;;;;;;;6.05;2.28;;;;;;;;;;5108170;27;42299;-72